createdAt,value
2023-02-13T00:00:19.748Z,98.00
2023-02-13T00:02:46.762Z,98.30
2023-02-13T00:05:13.473Z,98.30
2023-02-13T00:07:40.216Z,98.30
2023-02-13T00:10:07.925Z,98.30
2023-02-13T00:12:35.289Z,98.30
2023-02-13T00:15:02.604Z,98.30
2023-02-13T00:17:29.537Z,98.30
2023-02-13T00:19:56.326Z,98.30
2023-02-13T00:22:23.001Z,98.10
2023-02-13T00:24:49.719Z,98.30
2023-02-13T00:27:16.408Z,98.30
2023-02-13T00:29:43.128Z,98.00
2023-02-13T00:32:10.033Z,97.90
2023-02-13T00:34:36.827Z,98.30
2023-02-13T00:37:03.659Z,98.30
2023-02-13T00:39:30.360Z,98.30
2023-02-13T00:41:57.044Z,98.30
2023-02-13T00:44:23.811Z,98.30
2023-02-13T00:46:50.640Z,98.30
2023-02-13T00:49:17.328Z,98.30
2023-02-13T00:51:44.038Z,98.30
2023-02-13T00:54:10.700Z,98.30
2023-02-13T00:56:37.352Z,98.30
2023-02-13T00:59:05.480Z,98.30
2023-02-13T01:01:32.394Z,98.30
2023-02-13T01:04:00.002Z,98.30
2023-02-13T01:06:27.754Z,98.30
2023-02-13T01:08:54.477Z,98.30
2023-02-13T01:11:21.256Z,98.30
2023-02-13T01:13:47.977Z,98.30
2023-02-13T01:16:15.848Z,98.30
2023-02-13T01:18:42.735Z,98.30
2023-02-13T01:21:16.409Z,98.30
2023-02-13T01:23:43.087Z,98.30
2023-02-13T01:26:17.934Z,98.30
2023-02-13T01:28:44.606Z,98.30
2023-02-13T01:31:12.703Z,98.30
2023-02-13T01:33:39.498Z,98.30
2023-02-13T01:36:09.574Z,98.30
2023-02-13T01:38:37.995Z,97.90
2023-02-13T01:41:05.053Z,98.00
2023-02-13T01:43:53.739Z,98.30
2023-02-13T01:46:26.231Z,98.30
2023-02-13T01:48:56.180Z,98.20
2023-02-13T01:51:31.048Z,97.80
2023-02-13T01:54:03.882Z,98.00
2023-02-13T01:56:59.117Z,97.90
2023-02-13T01:59:34.845Z,97.80
2023-02-13T02:02:02.337Z,98.00
2023-02-13T02:04:33.671Z,98.30
2023-02-13T02:07:07.883Z,98.30
2023-02-13T02:10:32.511Z,98.30
2023-02-13T02:13:03.344Z,98.30
2023-02-13T02:15:31.376Z,98.30
2023-02-13T02:17:58.060Z,98.30
2023-02-13T02:20:49.534Z,98.30
2023-02-13T02:23:34.950Z,98.30
2023-02-13T02:26:11.964Z,98.30
2023-02-13T02:29:10.845Z,98.30
2023-02-13T02:31:56.090Z,98.30
2023-02-13T02:34:51.192Z,98.30
2023-02-13T02:38:01.276Z,98.30
2023-02-13T02:40:53.104Z,98.30
2023-02-13T02:43:30.034Z,98.30
2023-02-13T02:46:16.580Z,98.30
2023-02-13T02:49:12.569Z,98.30
2023-02-13T02:51:50.098Z,98.00
2023-02-13T02:54:53.056Z,97.80
2023-02-13T02:57:49.561Z,97.90
2023-02-13T03:00:41.235Z,97.60
2023-02-13T03:03:38.861Z,97.40
2023-02-13T03:06:14.310Z,97.80
2023-02-13T03:09:04.642Z,98.30
2023-02-13T03:11:50.512Z,98.30
2023-02-13T03:14:20.366Z,98.20
2023-02-13T03:17:07.525Z,98.30
2023-02-13T03:20:21.925Z,98.30
2023-02-13T03:22:57.911Z,98.30
2023-02-13T03:25:37.300Z,98.30
2023-02-13T03:28:36.780Z,98.20
2023-02-13T03:31:12.437Z,97.90
2023-02-13T03:33:54.720Z,97.90
2023-02-13T03:36:55.078Z,98.00
2023-02-13T03:39:34.569Z,98.30
2023-02-13T03:42:06.158Z,98.20
2023-02-13T03:45:09.184Z,98.20
2023-02-13T03:47:37.184Z,98.30
2023-02-13T03:50:05.887Z,98.30
2023-02-13T03:52:46.332Z,98.30
2023-02-13T03:55:39.502Z,98.20
2023-02-13T03:58:34.548Z,98.30
2023-02-13T04:01:04.936Z,98.10
2023-02-13T04:03:45.801Z,97.70
2023-02-13T04:06:32.882Z,98.00
2023-02-13T04:08:59.639Z,98.30
2023-02-13T04:11:26.265Z,98.30
2023-02-13T04:14:00.818Z,98.30
2023-02-13T04:16:37.220Z,98.30
2023-02-13T04:19:06.383Z,98.30
2023-02-13T04:21:35.413Z,98.30
2023-02-13T04:24:02.341Z,98.30
2023-02-13T04:26:37.309Z,98.30
2023-02-13T04:29:04.562Z,98.30
2023-02-13T04:31:31.405Z,98.30
2023-02-13T04:33:58.211Z,98.30
2023-02-13T04:36:24.860Z,98.30
2023-02-13T04:38:51.953Z,98.30
2023-02-13T04:41:18.856Z,98.30
2023-02-13T04:43:45.735Z,98.30
2023-02-13T04:46:12.499Z,98.30
2023-02-13T04:48:39.564Z,98.30
2023-02-13T04:51:06.617Z,98.30
2023-02-13T04:53:33.250Z,98.30
2023-02-13T04:55:59.890Z,98.30
2023-02-13T04:58:26.657Z,98.30
2023-02-13T05:00:53.280Z,98.30
2023-02-13T05:03:20.001Z,98.30
2023-02-13T05:05:47.930Z,98.30
2023-02-13T05:08:14.583Z,98.30
2023-02-13T05:10:41.271Z,98.30
2023-02-13T05:13:07.941Z,98.30
2023-02-13T05:15:34.665Z,98.30
2023-02-13T05:18:01.292Z,98.30
2023-02-13T05:20:27.918Z,98.30
2023-02-13T05:23:13.447Z,98.30
2023-02-13T05:25:41.488Z,98.30
2023-02-13T05:28:28.598Z,98.30
2023-02-13T05:30:55.698Z,98.00
2023-02-13T05:33:22.452Z,98.10
2023-02-13T05:35:49.152Z,97.80
2023-02-13T05:38:15.955Z,97.90
2023-02-13T05:40:42.608Z,97.70
2023-02-13T05:43:09.314Z,97.80
2023-02-13T05:45:35.995Z,97.80
2023-02-13T05:48:02.680Z,97.80
2023-02-13T05:50:29.352Z,97.70
2023-02-13T05:52:56.039Z,97.70
2023-02-13T05:55:22.684Z,98.00
2023-02-13T05:57:49.326Z,97.80
2023-02-13T06:00:16.942Z,97.60
2023-02-13T06:02:43.640Z,97.70
2023-02-13T06:05:10.601Z,97.90
2023-02-13T06:07:37.320Z,98.00
2023-02-13T06:10:04.021Z,97.90
2023-02-13T06:12:30.697Z,97.90
2023-02-13T06:14:57.339Z,97.90
2023-02-13T06:17:23.950Z,98.20
2023-02-13T06:19:50.646Z,98.30
2023-02-13T06:22:17.280Z,98.20
2023-02-13T06:24:43.921Z,98.30
2023-02-13T06:27:10.557Z,98.30
2023-02-13T06:29:37.346Z,98.30
2023-02-13T06:32:04.087Z,98.30
2023-02-13T06:34:30.781Z,98.30
2023-02-13T06:36:57.435Z,98.30
2023-02-13T06:39:24.191Z,98.30
2023-02-13T06:41:50.869Z,98.30
2023-02-13T06:44:17.507Z,98.30
2023-02-13T06:46:44.181Z,98.30
2023-02-13T06:49:11.011Z,98.30
2023-02-13T06:51:37.654Z,98.30
2023-02-13T06:54:04.379Z,98.30
2023-02-13T06:56:31.009Z,98.30
2023-02-13T06:58:57.638Z,98.30
2023-02-13T07:01:24.502Z,98.30
2023-02-13T07:03:51.190Z,98.30
2023-02-13T07:06:19.683Z,98.30
2023-02-13T07:08:47.538Z,98.30
2023-02-13T07:11:21.350Z,98.30
2023-02-13T07:13:48.404Z,98.30
2023-02-13T07:16:15.852Z,98.30
2023-02-13T07:18:42.588Z,98.30
2023-02-13T07:21:09.336Z,98.30
2023-02-13T07:23:35.967Z,98.30
2023-02-13T07:26:02.999Z,98.30
2023-02-13T07:28:30.338Z,98.30
2023-02-13T07:30:57.976Z,98.30
2023-02-13T07:33:24.988Z,98.30
2023-02-13T07:35:53.214Z,98.30
2023-02-13T07:38:20.018Z,98.30
2023-02-13T07:40:46.677Z,98.10
2023-02-13T07:43:13.548Z,98.10
2023-02-13T07:45:40.372Z,98.20
2023-02-13T07:48:07.007Z,98.30
2023-02-13T07:50:33.664Z,98.10
2023-02-13T07:53:01.972Z,98.10
2023-02-13T07:55:30.084Z,97.50
2023-02-13T07:57:57.005Z,97.80
2023-02-13T08:00:23.711Z,97.60
2023-02-13T08:02:50.524Z,97.60
2023-02-13T08:05:17.219Z,97.90
2023-02-13T08:07:43.912Z,97.90
2023-02-13T08:10:31.710Z,97.30
2023-02-13T08:13:01.435Z,97.70
2023-02-13T08:15:28.173Z,97.30
2023-02-13T08:17:57.638Z,97.30
2023-02-13T08:20:25.461Z,96.80
2023-02-13T08:22:52.638Z,96.90
2023-02-13T08:25:19.679Z,97.00
2023-02-13T08:27:50.490Z,97.20
2023-02-13T08:30:17.480Z,97.60
2023-02-13T08:32:53.939Z,97.10
2023-02-13T08:35:22.815Z,97.40
2023-02-13T08:37:49.554Z,97.50
2023-02-13T08:40:21.433Z,98.10
2023-02-13T08:42:49.239Z,98.10
2023-02-13T08:45:16.308Z,97.70
2023-02-13T08:47:43.057Z,97.40
2023-02-13T08:50:10.173Z,97.20
2023-02-13T08:52:36.822Z,97.10
2023-02-13T08:55:03.860Z,97.10
2023-02-13T08:57:33.427Z,97.40
2023-02-13T09:00:00.582Z,97.30
2023-02-13T09:02:28.048Z,96.90
2023-02-13T09:04:54.877Z,97.00
2023-02-13T09:07:25.283Z,96.70
2023-02-13T09:09:52.872Z,96.20
2023-02-13T09:12:19.736Z,96.00
2023-02-13T09:14:48.440Z,95.50
2023-02-13T09:17:18.304Z,95.30
2023-02-13T09:19:46.579Z,95.70
2023-02-13T09:22:13.672Z,95.70
2023-02-13T09:24:41.080Z,95.70
2023-02-13T09:27:08.984Z,95.90
2023-02-13T09:29:36.075Z,95.60
2023-02-13T09:32:05.230Z,96.30
2023-02-13T09:34:31.963Z,96.60
2023-02-13T09:36:58.607Z,96.80
2023-02-13T09:39:28.230Z,97.20
2023-02-13T09:41:56.475Z,96.90
2023-02-13T09:44:37.786Z,97.00
2023-02-13T09:47:17.717Z,97.20
2023-02-13T09:49:52.895Z,97.50
2023-02-13T09:52:20.112Z,97.50
2023-02-13T09:54:50.375Z,96.80
2023-02-13T09:57:27.499Z,96.70
2023-02-13T10:00:13.803Z,96.50
2023-02-13T10:02:52.726Z,96.30
2023-02-13T10:05:43.741Z,96.40
2023-02-13T10:08:33.785Z,96.50
2023-02-13T10:11:05.196Z,96.00
2023-02-13T10:13:56.949Z,96.10
2023-02-13T10:16:30.361Z,95.50
2023-02-13T10:19:10.852Z,94.10
2023-02-13T10:21:50.783Z,92.10
2023-02-13T10:24:35.305Z,88.50
2023-02-13T10:27:14.833Z,84.10
2023-02-13T10:30:13.141Z,80.10
2023-02-13T10:33:17.566Z,76.80
2023-02-13T10:35:48.202Z,72.70
2023-02-13T10:38:23.344Z,70.40
2023-02-13T10:41:18.057Z,68.30
2023-02-13T10:44:16.893Z,67.90
2023-02-13T10:47:10.708Z,65.70
2023-02-13T10:49:43.339Z,64.60
2023-02-13T10:52:16.836Z,62.90
2023-02-13T10:54:54.743Z,61.80
2023-02-13T10:57:55.525Z,60.70
2023-02-13T11:00:27.720Z,60.00
2023-02-13T11:02:56.174Z,59.50
2023-02-13T11:05:28.625Z,57.90
2023-02-13T11:07:55.332Z,57.30
2023-02-13T11:10:24.528Z,56.10
2023-02-13T11:12:51.882Z,55.70
2023-02-13T11:15:28.235Z,55.50
2023-02-13T11:18:20.759Z,54.00
2023-02-13T11:20:49.271Z,53.80
2023-02-13T11:23:31.186Z,52.70
2023-02-13T11:26:02.549Z,52.20
2023-02-13T11:28:32.446Z,52.50
2023-02-13T11:31:31.629Z,52.60
2023-02-13T11:34:00.608Z,52.50
2023-02-13T11:36:30.754Z,52.00
2023-02-13T11:39:03.225Z,51.70
2023-02-13T11:41:31.686Z,51.60
2023-02-13T11:44:01.596Z,51.30
2023-02-13T11:46:46.773Z,51.30
2023-02-13T11:49:26.153Z,51.10
2023-02-13T11:51:55.842Z,51.10
2023-02-13T11:54:29.031Z,51.00
2023-02-13T11:57:05.271Z,51.80
2023-02-13T11:59:40.100Z,51.80
2023-02-13T12:02:17.704Z,51.90
2023-02-13T12:04:45.624Z,52.10
2023-02-13T12:07:14.375Z,52.20
2023-02-13T12:09:41.844Z,52.10
2023-02-13T12:12:16.078Z,51.90
2023-02-13T12:14:45.074Z,52.40
2023-02-13T12:17:31.295Z,52.30
2023-02-13T12:20:00.240Z,52.20
2023-02-13T12:22:58.913Z,52.40
2023-02-13T12:25:35.208Z,52.40
2023-02-13T12:28:22.362Z,52.00
2023-02-13T12:31:09.056Z,51.80
2023-02-13T12:33:50.624Z,51.80
2023-02-13T12:36:21.255Z,51.70
2023-02-13T12:39:00.485Z,51.80
2023-02-13T12:41:51.902Z,53.20
2023-02-13T12:44:50.421Z,53.80
2023-02-13T12:47:22.940Z,54.00
2023-02-13T12:50:22.654Z,53.70
2023-02-13T12:53:30.518Z,53.50
2023-02-13T12:56:10.175Z,53.30
2023-02-13T12:59:00.449Z,53.80
2023-02-13T13:01:45.716Z,54.40
2023-02-13T13:04:52.640Z,55.30
2023-02-13T13:07:30.879Z,54.90
2023-02-13T13:10:21.455Z,55.00
2023-02-13T13:12:58.159Z,54.80
2023-02-13T13:15:48.731Z,55.30
2023-02-13T13:18:38.718Z,55.90
2023-02-13T13:21:11.204Z,55.80
2023-02-13T13:23:41.702Z,56.40
2023-02-13T13:26:37.494Z,57.70
2023-02-13T13:29:10.782Z,59.40
2023-02-13T13:31:38.120Z,61.00
2023-02-13T13:34:13.311Z,62.20
2023-02-13T13:36:48.799Z,63.10
2023-02-13T13:39:29.721Z,64.40
2023-02-13T13:42:21.989Z,65.70
2023-02-13T13:45:19.696Z,66.90
2023-02-13T13:48:03.490Z,67.40
2023-02-13T13:50:33.415Z,67.80
2023-02-13T13:53:15.992Z,68.70
2023-02-13T13:56:05.487Z,69.40
2023-02-13T13:58:37.505Z,69.90
2023-02-13T14:01:25.665Z,70.20
2023-02-13T14:04:03.693Z,70.60
2023-02-13T14:06:45.698Z,71.50
2023-02-13T14:09:27.642Z,72.10
2023-02-13T14:11:56.708Z,71.90
2023-02-13T14:14:44.565Z,72.40
2023-02-13T14:17:15.779Z,72.30
2023-02-13T14:19:51.991Z,72.40
2023-02-13T14:22:36.088Z,72.90
2023-02-13T14:25:32.051Z,73.10
2023-02-13T14:28:11.800Z,73.00
2023-02-13T14:30:42.475Z,73.10
2023-02-13T14:33:25.549Z,73.50
2023-02-13T14:36:08.396Z,73.50
2023-02-13T14:38:36.024Z,73.70
2023-02-13T14:41:03.498Z,73.80
2023-02-13T14:43:38.903Z,73.50
2023-02-13T14:46:24.493Z,73.60
2023-02-13T14:48:55.630Z,73.80
2023-02-13T14:51:35.753Z,74.10
2023-02-13T14:54:30.005Z,74.50
2023-02-13T14:57:19.388Z,74.60
2023-02-13T14:59:50.937Z,74.60
2023-02-13T15:02:24.794Z,74.50
2023-02-13T15:05:03.033Z,74.50
2023-02-13T15:07:34.629Z,74.70
2023-02-13T15:10:25.946Z,74.90
2023-02-13T15:13:00.354Z,74.90
2023-02-13T15:15:33.890Z,75.20
2023-02-13T15:18:03.760Z,74.90
2023-02-13T15:20:37.931Z,74.70
2023-02-13T15:23:06.748Z,75.40
2023-02-13T15:25:38.984Z,75.10
2023-02-13T15:28:09.063Z,75.60
2023-02-13T15:30:37.813Z,76.10
2023-02-13T15:33:17.919Z,75.90
2023-02-13T15:35:45.719Z,75.30
2023-02-13T15:38:29.966Z,75.70
2023-02-13T15:41:05.286Z,75.80
2023-02-13T15:43:43.728Z,75.60
2023-02-13T15:46:27.530Z,75.90
2023-02-13T15:48:57.761Z,75.60
2023-02-13T15:51:31.232Z,75.80
2023-02-13T15:54:00.558Z,76.10
2023-02-13T15:56:28.407Z,76.40
2023-02-13T15:58:56.131Z,76.50
2023-02-13T16:01:23.918Z,76.50
2023-02-13T16:03:59.779Z,76.80
2023-02-13T16:06:26.930Z,77.40
2023-02-13T16:08:58.845Z,77.40
2023-02-13T16:11:25.554Z,77.10
2023-02-13T16:14:06.210Z,77.30
2023-02-13T16:16:48.517Z,77.50
2023-02-13T16:19:34.053Z,77.80
2023-02-13T16:22:06.021Z,78.70
2023-02-13T16:24:33.215Z,79.10
2023-02-13T16:27:00.694Z,79.50
2023-02-13T16:29:28.406Z,79.70
2023-02-13T16:32:04.837Z,79.90
2023-02-13T16:34:31.795Z,80.40
2023-02-13T16:36:58.516Z,80.40
2023-02-13T16:39:31.606Z,80.80
2023-02-13T16:42:00.131Z,81.00
2023-02-13T16:44:28.383Z,81.20
2023-02-13T16:47:04.869Z,81.40
2023-02-13T16:49:37.889Z,81.50
2023-02-13T16:52:12.450Z,81.30
2023-02-13T16:54:50.801Z,81.20
2023-02-13T16:57:24.303Z,81.40
2023-02-13T16:59:55.331Z,81.90
2023-02-13T17:02:25.588Z,82.30
2023-02-13T17:04:56.825Z,82.50
2023-02-13T17:07:29.453Z,82.70
2023-02-13T17:10:02.538Z,82.80
2023-02-13T17:12:30.950Z,83.30
2023-02-13T17:14:59.765Z,83.40
2023-02-13T17:17:29.534Z,83.10
2023-02-13T17:19:58.205Z,83.30
2023-02-13T17:22:30.853Z,83.50
2023-02-13T17:25:04.654Z,83.50
2023-02-13T17:27:31.877Z,83.50
2023-02-13T17:29:58.667Z,83.60
2023-02-13T17:32:27.761Z,83.60
2023-02-13T17:34:54.940Z,83.60
2023-02-13T17:37:23.146Z,83.50
2023-02-13T17:39:50.101Z,84.20
2023-02-13T17:42:21.245Z,84.20
2023-02-13T17:44:48.266Z,84.80
2023-02-13T17:47:15.133Z,84.80
2023-02-13T17:49:42.319Z,84.70
2023-02-13T17:52:25.623Z,84.70
2023-02-13T17:54:52.450Z,84.90
2023-02-13T17:57:19.361Z,84.80
2023-02-13T17:59:46.896Z,85.00
2023-02-13T18:02:16.530Z,85.10
2023-02-13T18:04:43.337Z,85.00
2023-02-13T18:07:12.357Z,85.10
2023-02-13T18:09:39.846Z,85.50
2023-02-13T18:12:08.745Z,85.50
2023-02-13T18:14:35.450Z,86.00
2023-02-13T18:17:02.093Z,85.90
2023-02-13T18:19:28.743Z,85.90
2023-02-13T18:21:55.415Z,86.10
2023-02-13T18:24:22.134Z,86.10
2023-02-13T18:26:51.496Z,86.00
2023-02-13T18:29:18.446Z,85.70
2023-02-13T18:31:45.276Z,86.00
2023-02-13T18:34:12.072Z,86.20
2023-02-13T18:36:38.777Z,86.50
2023-02-13T18:39:05.446Z,86.20
2023-02-13T18:41:32.075Z,86.20
2023-02-13T18:43:58.875Z,86.50
2023-02-13T18:46:25.687Z,86.60
2023-02-13T18:48:52.357Z,86.60
2023-02-13T18:51:19.088Z,86.70
2023-02-13T18:53:46.032Z,86.60
2023-02-13T18:56:13.503Z,86.50
2023-02-13T18:58:40.343Z,85.80
2023-02-13T19:01:08.169Z,85.80
2023-02-13T19:03:36.364Z,85.90
2023-02-13T19:06:09.129Z,86.20
2023-02-13T19:08:36.697Z,86.30
2023-02-13T19:11:12.511Z,86.40
2023-02-13T19:13:39.143Z,86.60
2023-02-13T19:16:10.357Z,86.80
2023-02-13T19:18:41.215Z,87.00
2023-02-13T19:21:07.911Z,87.30
2023-02-13T19:23:35.726Z,87.20
2023-02-13T19:26:15.214Z,87.30
2023-02-13T19:28:42.288Z,87.50
2023-02-13T19:31:11.872Z,87.50
2023-02-13T19:33:39.348Z,87.80
2023-02-13T19:36:09.522Z,87.70
2023-02-13T19:38:36.651Z,87.90
2023-02-13T19:41:08.242Z,88.20
2023-02-13T19:43:35.363Z,88.10
2023-02-13T19:46:04.848Z,88.00
2023-02-13T19:48:32.347Z,88.10
2023-02-13T19:50:59.326Z,88.10
2023-02-13T19:53:26.194Z,88.20
2023-02-13T19:55:59.715Z,88.40
2023-02-13T19:58:27.280Z,88.60
2023-02-13T20:00:54.019Z,88.60
2023-02-13T20:03:21.707Z,88.80
2023-02-13T20:05:48.657Z,89.10
2023-02-13T20:08:15.340Z,89.40
2023-02-13T20:10:46.249Z,89.40
2023-02-13T20:13:13.083Z,89.40
2023-02-13T20:15:40.649Z,89.30
2023-02-13T20:18:07.468Z,89.30
2023-02-13T20:20:34.126Z,89.10
2023-02-13T20:23:01.678Z,88.70
2023-02-13T20:25:31.975Z,89.00
2023-02-13T20:27:59.477Z,88.80
2023-02-13T20:30:26.314Z,89.00
2023-02-13T20:32:53.046Z,89.30
2023-02-13T20:35:19.706Z,89.20
2023-02-13T20:37:46.365Z,89.40
2023-02-13T20:40:13.456Z,89.50
2023-02-13T20:42:40.117Z,89.40
2023-02-13T20:45:07.252Z,89.30
2023-02-13T20:47:33.861Z,89.20
2023-02-13T20:50:00.517Z,89.50
2023-02-13T20:52:30.696Z,90.10
2023-02-13T20:55:05.468Z,90.30
2023-02-13T20:57:36.207Z,90.50
2023-02-13T21:00:05.717Z,90.40
2023-02-13T21:02:32.421Z,90.40
2023-02-13T21:04:59.112Z,90.50
2023-02-13T21:07:25.789Z,90.20
2023-02-13T21:09:52.470Z,90.20
2023-02-13T21:12:19.139Z,90.40
2023-02-13T21:14:48.194Z,90.10
2023-02-13T21:17:18.169Z,90.10
2023-02-13T21:19:45.447Z,90.30
2023-02-13T21:22:12.459Z,90.60
2023-02-13T21:24:49.271Z,90.60
2023-02-13T21:27:19.419Z,90.70
2023-02-13T21:29:46.596Z,90.90
2023-02-13T21:32:16.541Z,90.90
2023-02-13T21:34:43.257Z,91.10
2023-02-13T21:37:11.941Z,91.20
2023-02-13T21:39:39.484Z,91.40
2023-02-13T21:42:06.302Z,91.50
2023-02-13T21:44:33.501Z,91.90
2023-02-13T21:47:00.236Z,92.00
2023-02-13T21:49:26.997Z,92.10
2023-02-13T21:51:53.617Z,92.80
2023-02-13T21:54:20.259Z,93.10
2023-02-13T21:56:50.748Z,93.00
2023-02-13T21:59:17.824Z,92.80
2023-02-13T22:01:47.168Z,92.80
2023-02-13T22:04:15.521Z,93.20
2023-02-13T22:06:42.184Z,93.20
2023-02-13T22:09:14.019Z,93.30
2023-02-13T22:11:41.614Z,92.80
2023-02-13T22:14:13.900Z,92.60
2023-02-13T22:16:42.642Z,92.90
2023-02-13T22:19:12.718Z,92.60
2023-02-13T22:21:42.914Z,93.10
2023-02-13T22:24:09.851Z,93.20
2023-02-13T22:26:39.563Z,93.20
2023-02-13T22:29:10.178Z,93.00
2023-02-13T22:31:37.723Z,92.80
2023-02-13T22:34:05.726Z,93.20
2023-02-13T22:36:40.020Z,93.40
2023-02-13T22:39:08.608Z,93.60
2023-02-13T22:41:35.324Z,93.40
2023-02-13T22:44:01.968Z,93.00
2023-02-13T22:46:31.131Z,93.10
2023-02-13T22:48:59.015Z,92.90
2023-02-13T22:51:31.385Z,93.20
2023-02-13T22:53:59.216Z,93.20
2023-02-13T22:56:27.439Z,93.50
2023-02-13T22:58:54.246Z,93.50
2023-02-13T23:01:22.822Z,93.20
2023-02-13T23:03:50.003Z,92.70
2023-02-13T23:06:17.687Z,93.10
2023-02-13T23:08:45.135Z,92.80
2023-02-13T23:11:34.155Z,92.50
2023-02-13T23:14:01.391Z,92.60
2023-02-13T23:16:28.585Z,92.00
2023-02-13T23:18:57.014Z,92.20
2023-02-13T23:21:24.986Z,92.40
2023-02-13T23:23:51.768Z,92.20
2023-02-13T23:26:18.923Z,91.90
2023-02-13T23:28:45.732Z,92.00
2023-02-13T23:31:12.524Z,92.50
2023-02-13T23:33:39.310Z,92.50
2023-02-13T23:36:06.690Z,92.20
2023-02-13T23:38:36.411Z,92.00
2023-02-13T23:41:08.482Z,92.30
2023-02-13T23:43:35.286Z,92.10
2023-02-13T23:46:07.110Z,92.40
2023-02-13T23:48:34.440Z,92.80
2023-02-13T23:51:01.686Z,92.70
2023-02-13T23:53:28.536Z,93.00
2023-02-13T23:55:55.266Z,93.30
2023-02-13T23:58:22.319Z,93.40
